Time;durP1;ratioP1;P1;durP2;ratioP2;P2;SDS_P1;SDS_P2;PMS_P1;PMS_P2;Temp;Humidity;BMP_temperature;BMP_pressure;BME280_temperature;BME280_humidity;BME280_pressure;Samples;Min_cycle;Max_cycle;Signal;HPM_P1;HPM_P2
2023/12/15 00:01:27;;;;;;;19.77;3.75;;;;;;;-5.05;74.86;99183.34;4935644;29;20435;-58
2023/12/15 00:03:53;;;;;;;21.42;3.88;;;;;;;-5.14;75.08;99154.47;4935818;29;20098;-56
2023/12/15 00:06:18;;;;;;;16.17;3.28;;;;;;;-5.10;75.68;99131.72;4936010;29;20533;-55
2023/12/15 00:08:44;;;;;;;18.65;3.08;;;;;;;-4.92;75.65;99163.31;4935076;29;20046;-56
2023/12/15 00:11:10;;;;;;;20.75;3.28;;;;;;;-4.89;75.97;99158.31;4952414;29;20066;-58
2023/12/15 00:13:36;;;;;;;11.73;3.00;;;;;;;-5.15;75.93;99113.91;4934487;29;20050;-56
2023/12/15 00:16:02;;;;;;;11.98;2.78;;;;;;;-5.16;75.63;99145.13;4952024;29;20079;-56
2023/12/15 00:18:28;;;;;;;11.32;2.97;;;;;;;-5.33;76.15;99108.47;4952298;28;20090;-56
2023/12/15 00:20:53;;;;;;;13.30;2.38;;;;;;;-5.21;76.59;99144.16;4952368;28;20134;-57
2023/12/15 00:23:20;;;;;;;11.25;2.60;;;;;;;-5.13;77.13;99132.53;4935201;29;20047;-57
2023/12/15 00:25:46;;;;;;;14.85;2.85;;;;;;;-5.06;76.75;99139.41;4951234;29;20051;-55
2023/12/15 00:28:12;;;;;;;13.80;2.97;;;;;;;-4.96;76.93;99138.72;4952000;28;20058;-56
2023/12/15 00:30:38;;;;;;;17.08;2.38;;;;;;;-4.92;76.70;99132.88;4951721;28;20042;-59
2023/12/15 00:33:04;;;;;;;6.30;2.58;;;;;;;-4.95;76.99;99140.44;4950991;29;20499;-55
2023/12/15 00:35:30;;;;;;;15.52;3.03;;;;;;;-4.91;77.14;99123.59;4923278;29;20043;-54
2023/12/15 00:37:55;;;;;;;14.68;2.78;;;;;;;-4.88;77.07;99113.53;4930154;29;20042;-56
2023/12/15 00:40:24;;;;;;;11.43;2.50;;;;;;;-5.11;77.07;99087.78;4914639;29;20105;-57
2023/12/15 00:42:50;;;;;;;16.88;2.90;;;;;;;-4.92;76.79;99105.00;4930384;29;20543;-56
2023/12/15 00:45:15;;;;;;;12.48;2.35;;;;;;;-4.86;77.07;99089.06;4930166;29;20045;-55
2023/12/15 00:47:41;;;;;;;22.15;4.93;;;;;;;-4.84;76.60;99100.09;4930176;29;20086;-55
2023/12/15 00:50:07;;;;;;;8.23;2.38;;;;;;;-5.09;76.51;99073.47;4944758;28;20035;-57
2023/12/15 00:52:33;;;;;;;19.58;3.25;;;;;;;-4.96;76.33;99104.94;4965419;28;20126;-54
2023/12/15 00:54:59;;;;;;;13.38;2.67;;;;;;;-5.01;76.56;99096.41;4951450;29;20131;-59
2023/12/15 00:57:25;;;;;;;17.90;3.03;;;;;;;-5.30;76.62;99061.28;4951378;29;20094;-55
2023/12/15 00:59:51;;;;;;;15.85;2.75;;;;;;;-5.15;76.60;99074.22;4951329;29;20051;-57
2023/12/15 01:02:16;;;;;;;19.88;3.53;;;;;;;-5.11;77.14;99085.25;4951339;29;20123;-59
2023/12/15 01:04:42;;;;;;;12.20;2.25;;;;;;;-5.05;77.14;99080.28;4934092;29;20534;-57
2023/12/15 01:07:08;;;;;;;17.08;3.13;;;;;;;-5.00;77.15;99077.84;4918392;29;20038;-56
2023/12/15 01:09:34;;;;;;;11.55;3.33;;;;;;;-4.93;77.15;99062.78;4951262;29;20125;-53
2023/12/15 01:12:00;;;;;;;14.30;2.50;;;;;;;-4.96;77.01;99077.91;4933527;29;20548;-57
2023/12/15 01:14:26;;;;;;;14.77;5.03;;;;;;;-4.90;77.12;99062.81;4951043;29;20054;-56
2023/12/15 01:16:52;;;;;;;20.58;3.00;;;;;;;-5.19;77.15;99033.59;4902210;29;20043;-55
2023/12/15 01:19:18;;;;;;;23.00;2.97;;;;;;;-5.01;77.43;99060.91;4902288;29;20206;-56
2023/12/15 01:21:44;;;;;;;16.45;2.78;;;;;;;-4.98;77.63;99048.31;4933926;29;20130;-55
2023/12/15 01:24:11;;;;;;;13.80;2.80;;;;;;;-4.96;77.94;99075.38;4951057;28;20570;-56
2023/12/15 01:26:37;;;;;;;23.63;3.63;;;;;;;-4.94;77.83;99072.88;4950894;29;20125;-58
2023/12/15 01:29:03;;;;;;;17.70;2.90;;;;;;;-4.91;77.65;99077.97;4933611;29;20125;-56
2023/12/15 01:31:29;;;;;;;20.38;5.00;;;;;;;-4.97;77.09;99072.84;4933683;29;20039;-56
2023/12/15 01:33:55;;;;;;;16.90;2.63;;;;;;;-5.00;77.44;99065.16;4933637;29;20047;-56
2023/12/15 01:36:20;;;;;;;8.68;2.28;;;;;;;-5.02;77.14;99044.84;4950696;29;20711;-57
2023/12/15 01:38:46;;;;;;;13.60;2.95;;;;;;;-5.19;77.31;99023.47;4917252;29;20051;-57
2023/12/15 01:41:12;;;;;;;11.65;2.65;;;;;;;-4.96;76.71;99075.38;4950649;29;20511;-55
2023/12/15 01:43:38;;;;;;;16.63;2.47;;;;;;;-5.07;77.39;99045.59;4950344;29;20047;-53
2023/12/15 01:46:04;;;;;;;23.33;3.00;;;;;;;-5.27;77.63;99020.78;4948749;29;20054;-55
2023/12/15 01:48:30;;;;;;;19.58;2.92;;;;;;;-5.03;77.63;99048.25;4931454;29;20138;-53
2023/12/15 01:50:56;;;;;;;17.50;3.03;;;;;;;-5.15;77.79;99026.06;4932062;29;20079;-59
2023/12/15 01:53:22;;;;;;;17.13;3.25;;;;;;;-5.41;78.11;98991.84;4933496;29;20079;-55
2023/12/15 01:55:48;;;;;;;11.63;2.75;;;;;;;-5.25;78.31;99008.16;4933125;29;20046;-53
2023/12/15 01:58:14;;;;;;;18.00;3.63;;;;;;;-5.00;78.19;99022.94;4933385;29;20570;-56
2023/12/15 02:00:40;;;;;;;24.55;3.17;;;;;;;-5.09;77.95;99024.47;4933563;29;20435;-58
2023/12/15 02:03:07;;;;;;;18.25;2.42;;;;;;;-5.05;77.56;99014.41;4917557;29;20046;-56
2023/12/15 02:05:32;;;;;;;16.38;2.30;;;;;;;-5.01;78.30;99017.84;4917413;29;20105;-52
2023/12/15 02:07:59;;;;;;;21.20;2.80;;;;;;;-5.02;77.73;99023.75;4916871;29;20579;-56
2023/12/15 02:10:25;;;;;;;14.20;2.22;;;;;;;-5.11;78.11;98999.09;4950349;29;20055;-56
2023/12/15 02:12:51;;;;;;;12.07;2.58;;;;;;;-4.98;77.84;99008.63;4950311;29;20182;-54
2023/12/15 02:15:18;;;;;;;12.15;2.30;;;;;;;-4.96;77.91;99001.03;4950203;29;20618;-56
2023/12/15 02:17:44;;;;;;;11.70;2.10;;;;;;;-4.90;78.15;99001.13;4917394;29;20043;-56
2023/12/15 02:20:10;;;;;;;14.77;2.40;;;;;;;-4.93;78.24;99004.47;4950346;29;20039;-59
2023/12/15 02:22:36;;;;;;;19.02;2.88;;;;;;;-5.22;77.77;98953.31;4933178;29;20043;-57
2023/12/15 02:25:02;;;;;;;12.35;2.78;;;;;;;-4.94;77.71;99012.06;4950293;29;20039;-54
2023/12/15 02:27:30;;;;;;;7.78;1.17;;;;;;;-5.38;77.99;98961.50;4950306;29;20130;-55
2023/12/15 02:29:55;;;;;;;10.57;1.77;;;;;;;-5.20;78.33;98986.28;4933066;29;20075;-54
2023/12/15 02:32:21;;;;;;;4.13;1.02;;;;;;;-5.53;78.78;98947.72;4950213;29;20047;-56
2023/12/15 02:34:47;;;;;;;12.00;2.15;;;;;;;-5.37;78.72;99000.31;4901383;29;20066;-56
2023/12/15 02:37:13;;;;;;;1.88;0.60;;;;;;;-5.30;78.69;98986.97;4920376;29;20035;-58
2023/12/15 02:39:39;;;;;;;1.85;0.70;;;;;;;-5.28;78.39;98991.22;4954200;29;20043;-56
2023/12/15 02:42:05;;;;;;;13.25;1.85;;;;;;;-5.47;77.44;98957.94;4920868;29;20527;-58
2023/12/15 02:44:31;;;;;;;5.70;1.45;;;;;;;-5.26;77.77;98997.16;4953825;29;20043;-55
2023/12/15 02:46:57;;;;;;;7.75;1.70;;;;;;;-5.23;77.31;98994.66;4936557;29;20519;-54
2023/12/15 02:49:23;;;;;;;4.60;1.30;;;;;;;-5.21;77.36;98998.09;4936788;29;20448;-53
2023/12/15 02:51:49;;;;;;;7.18;1.40;;;;;;;-5.35;76.35;98986.03;4937217;29;20039;-56
2023/12/15 02:54:14;;;;;;;10.38;1.80;;;;;;;-5.46;75.94;98974.84;4936461;29;20070;-53
2023/12/15 02:56:40;;;;;;;4.32;1.23;;;;;;;-5.45;76.60;98985.03;4953505;29;20129;-55
2023/12/15 02:59:06;;;;;;;7.25;1.92;;;;;;;-5.59;76.32;98939.19;4919839;29;20077;-54
2023/12/15 03:01:32;;;;;;;2.78;0.90;;;;;;;-5.42;76.54;98954.66;4935487;29;20401;-55
2023/12/15 03:03:58;;;;;;;4.43;1.30;;;;;;;-5.23;76.26;98974.41;4921136;29;20050;-57
2023/12/15 03:06:24;;;;;;;3.00;1.30;;;;;;;-5.47;76.19;98930.94;4936752;29;20043;-56
2023/12/15 03:08:50;;;;;;;2.67;1.13;;;;;;;-5.21;76.34;98961.78;4953256;29;20542;-55
2023/12/15 03:11:15;;;;;;;6.45;1.73;;;;;;;-5.18;75.95;98960.13;4935630;29;20070;-56
2023/12/15 03:13:41;;;;;;;1.90;1.10;;;;;;;-5.18;76.25;98970.25;4953269;29;20067;-56
2023/12/15 03:16:09;;;;;;;10.35;1.60;;;;;;;-5.26;75.79;98954.09;4952080;29;20129;-55
2023/12/15 03:18:35;;;;;;;3.90;1.10;;;;;;;-5.33;75.95;98948.91;4935293;29;20450;-55
2023/12/15 03:21:01;;;;;;;5.65;1.67;;;;;;;-5.27;75.86;98954.91;4952582;29;20039;-56
2023/12/15 03:23:27;;;;;;;4.68;0.98;;;;;;;-5.16;76.34;98965.22;4952239;29;20043;-59
2023/12/15 03:25:54;;;;;;;8.55;2.47;;;;;;;-5.23;75.66;98964.28;4935892;29;20047;-57
2023/12/15 03:28:19;;;;;;;8.25;1.23;;;;;;;-5.28;75.54;98970.09;4952263;29;20141;-58
2023/12/15 03:30:45;;;;;;;6.03;1.92;;;;;;;-5.29;75.29;98956.59;4919621;29;20125;-59
2023/12/15 03:33:11;;;;;;;9.27;2.20;;;;;;;-5.49;74.83;98930.06;4920036;29;20066;-58
2023/12/15 03:35:37;;;;;;;8.30;2.22;;;;;;;-5.39;75.17;98959.78;4919780;29;20577;-56
2023/12/15 03:38:03;;;;;;;4.25;1.70;;;;;;;-5.44;74.98;98953.78;4935571;29;20127;-55
2023/12/15 03:40:29;;;;;;;7.47;1.80;;;;;;;-5.43;74.10;98950.44;4941965;28;20044;-57
2023/12/15 03:42:55;;;;;;;5.55;2.55;;;;;;;-5.59;74.76;98954.38;4933744;29;20551;-56
2023/12/15 03:45:21;;;;;;;7.15;2.10;;;;;;;-5.61;76.44;98950.13;4952608;29;20109;-57
2023/12/15 03:47:47;;;;;;;5.90;1.52;;;;;;;-5.76;77.35;98925.41;4920415;29;20043;-59
2023/12/15 03:50:12;;;;;;;2.28;1.33;;;;;;;-5.77;77.61;98910.16;4953918;29;20089;-57
2023/12/15 03:52:38;;;;;;;6.30;1.35;;;;;;;-5.38;78.16;98947.97;4936679;29;20047;-58
2023/12/15 03:55:05;;;;;;;10.27;2.95;;;;;;;-5.30;78.01;98948.97;4936062;29;20177;-55
2023/12/15 03:57:30;;;;;;;2.55;1.05;;;;;;;-5.68;78.03;98882.47;4935887;29;20846;-58
2023/12/15 03:59:56;;;;;;;6.03;1.73;;;;;;;-5.56;77.55;98911.41;4952060;29;20043;-57
2023/12/15 04:02:22;;;;;;;4.05;2.08;;;;;;;-5.27;77.08;98941.41;4918648;29;20431;-54
2023/12/15 04:04:48;;;;;;;7.47;2.63;;;;;;;-5.22;77.15;98935.59;4952234;29;20050;-57
2023/12/15 04:07:14;;;;;;;11.85;2.25;;;;;;;-5.32;76.33;98923.59;4935226;29;20051;-57
2023/12/15 04:09:39;;;;;;;7.97;2.20;;;;;;;-5.53;76.23;98903.00;4934868;29;20055;-57
2023/12/15 04:12:06;;;;;;;6.28;1.52;;;;;;;-5.28;75.89;98927.88;4934488;29;20582;-57
2023/12/15 04:14:33;;;;;;;3.67;1.42;;;;;;;-5.22;76.34;98924.59;4951652;29;20047;-58
2023/12/15 04:16:59;;;;;;;6.60;1.40;;;;;;;-5.33;76.44;98906.69;4946039;29;20132;-59
2023/12/15 04:19:25;;;;;;;5.10;2.22;;;;;;;-5.15;75.80;98936.53;4925000;29;20057;-58
2023/12/15 04:21:51;;;;;;;6.28;2.30;;;;;;;-5.28;75.29;98929.56;4909458;29;20578;-57
2023/12/15 04:24:16;;;;;;;6.68;2.28;;;;;;;-5.26;75.93;98932.97;4941098;29;20039;-56
2023/12/15 04:26:42;;;;;;;3.83;1.20;;;;;;;-5.28;76.08;98927.88;4932002;29;20055;-58
2023/12/15 04:29:08;;;;;;;6.82;1.75;;;;;;;-5.27;75.47;98921.13;4951782;29;20082;-57
2023/12/15 04:31:34;;;;;;;8.68;2.20;;;;;;;-5.25;75.62;98920.34;4951471;29;20047;-59
2023/12/15 04:34:00;;;;;;;6.47;1.92;;;;;;;-5.20;75.52;98921.28;4951450;29;20062;-59
2023/12/15 04:36:26;;;;;;;3.65;1.50;;;;;;;-5.15;75.73;98912.06;4934210;29;20043;-58
2023/12/15 04:38:53;;;;;;;4.90;1.38;;;;;;;-5.45;75.85;98838.16;4918327;29;20046;-54
2023/12/15 04:41:23;;;;;;;6.10;1.73;;;;;;;-5.26;75.89;98878.09;4951379;29;20076;-55
2023/12/15 04:43:49;;;;;;;3.95;1.05;;;;;;;-5.05;75.86;98909.66;4933984;29;20042;-57
2023/12/15 04:46:25;;;;;;;13.35;2.40;;;;;;;-5.34;75.79;98871.22;4933663;29;20046;-61
2023/12/15 04:48:53;;;;;;;4.20;1.10;;;;;;;-5.23;75.35;98900.09;4923652;29;20039;-57
2023/12/15 04:51:19;;;;;;;4.78;1.75;;;;;;;-5.18;76.17;98890.91;4941215;29;20053;-52
2023/12/15 04:53:45;;;;;;;4.45;1.52;;;;;;;-5.07;76.14;98899.50;4934849;29;20051;-59
2023/12/15 04:56:12;;;;;;;7.32;2.00;;;;;;;-5.02;75.47;98892.81;4915439;29;20095;-57
2023/12/15 04:58:38;;;;;;;12.98;2.05;;;;;;;-5.03;75.58;98895.34;4922159;29;20047;-57
2023/12/15 05:01:04;;;;;;;10.60;1.77;;;;;;;-4.95;75.91;98893.75;4936530;29;20124;-57
2023/12/15 05:03:31;;;;;;;5.80;1.80;;;;;;;-4.98;75.71;98892.03;4949588;29;20085;-59
2023/12/15 05:05:57;;;;;;;9.88;2.22;;;;;;;-5.41;75.63;98818.78;4917877;29;20146;-61
2023/12/15 05:08:23;;;;;;;9.38;2.50;;;;;;;-5.02;75.51;98889.44;4933012;29;20145;-58
2023/12/15 05:10:49;;;;;;;5.10;1.90;;;;;;;-5.03;75.09;98882.69;4933460;29;20427;-56
2023/12/15 05:13:15;;;;;;;18.42;3.15;;;;;;;-5.13;75.43;98867.31;4933708;29;20576;-58
2023/12/15 05:15:41;;;;;;;5.45;1.70;;;;;;;-5.15;75.22;98890.94;4933526;29;20479;-57
2023/12/15 05:18:07;;;;;;;14.27;3.40;;;;;;;-5.12;75.22;98908.72;4949579;29;20125;-58
2023/12/15 05:20:36;;;;;;;8.00;2.22;;;;;;;-5.26;74.73;98892.44;4933280;29;20133;-59
2023/12/15 05:23:05;;;;;;;9.63;3.03;;;;;;;-5.26;75.58;98880.66;4950866;29;20054;-59
2023/12/15 05:25:31;;;;;;;;;;;;;;;-5.15;76.01;98881.66;4919145;29;20578;-58
2023/12/15 05:27:57;;;;;;;9.35;2.25;;;;;;;-5.25;75.15;98877.28;4952030;29;19934;-57
2023/12/15 05:30:23;;;;;;;3.72;1.45;;;;;;;-5.24;75.11;98876.47;4951149;29;20054;-59
2023/12/15 05:32:49;;;;;;;4.82;1.50;;;;;;;-5.23;75.08;98874.75;4933723;29;20045;-57
2023/12/15 05:35:15;;;;;;;7.75;2.28;;;;;;;-5.16;75.23;98890.09;4950826;29;20134;-58
2023/12/15 05:37:41;;;;;;;4.00;1.52;;;;;;;-5.17;75.67;98888.38;4933336;29;20153;-56
2023/12/15 05:40:11;;;;;;;13.40;2.85;;;;;;;-5.07;75.31;98889.34;4933707;29;20051;-61
2023/12/15 05:42:37;;;;;;;8.93;2.63;;;;;;;-5.08;75.30;98882.59;4933316;29;20517;-58
2023/12/15 05:45:04;;;;;;;7.22;2.00;;;;;;;-5.18;75.81;98848.66;4950517;29;20049;-58
2023/12/15 05:47:32;;;;;;;18.33;2.83;;;;;;;-5.04;75.73;98863.22;4950658;29;20051;-57
2023/12/15 05:49:57;;;;;;;6.95;1.80;;;;;;;-4.98;75.70;98874.31;4950391;29;20043;-54
2023/12/15 05:52:25;;;;;;;5.90;1.90;;;;;;;-4.92;75.68;98881.97;4933668;29;20035;-57
2023/12/15 05:54:51;;;;;;;19.13;3.40;;;;;;;-4.95;75.21;98878.56;4933270;29;20047;-59
2023/12/15 05:57:17;;;;;;;6.13;2.58;;;;;;;-5.27;75.19;98840.94;4933284;29;20050;-58
2023/12/15 05:59:42;;;;;;;11.93;1.70;;;;;;;-5.04;75.37;98884.34;4933558;29;20047;-58
2023/12/15 06:02:09;;;;;;;4.88;2.30;;;;;;;-4.98;75.43;98874.31;4951062;29;20067;-58
2023/12/15 06:04:35;;;;;;;5.38;2.40;;;;;;;-4.90;75.85;98875.25;4933330;29;20066;-56
2023/12/15 06:07:01;;;;;;;10.23;3.22;;;;;;;-4.93;75.71;98879.44;4950426;29;20071;-57
2023/12/15 06:09:27;;;;;;;8.77;2.33;;;;;;;-4.93;76.11;98885.38;4949884;29;20046;-57
2023/12/15 06:11:53;;;;;;;6.60;2.35;;;;;;;-4.90;75.20;98887.94;4953059;28;20047;-58
2023/12/15 06:14:22;;;;;;;8.73;2.65;;;;;;;-4.97;75.15;98891.19;4968246;28;20137;-60
2023/12/15 06:16:48;;;;;;;10.75;3.63;;;;;;;-5.10;75.17;98884.25;4957611;28;20049;-59
2023/12/15 06:19:15;;;;;;;10.00;3.40;;;;;;;-5.09;75.29;98880.91;4954137;29;20101;-58
2023/12/15 06:21:41;;;;;;;10.75;2.95;;;;;;;-5.00;75.77;98890.31;4936723;29;20043;-60
2023/12/15 06:24:06;;;;;;;4.25;1.95;;;;;;;-4.98;75.72;98889.50;4936777;29;20066;-60
2023/12/15 06:26:32;;;;;;;6.95;2.60;;;;;;;-5.12;75.39;98858.88;4936300;29;20523;-59
2023/12/15 06:28:58;;;;;;;14.10;3.63;;;;;;;-4.89;75.38;98892.16;4918537;29;20514;-59
2023/12/15 06:31:29;;;;;;;8.65;2.75;;;;;;;-4.89;74.80;98894.69;4953272;29;20049;-58
2023/12/15 06:33:55;;;;;;;23.35;3.70;;;;;;;-4.91;74.71;98890.44;4953881;29;20046;-58
2023/12/15 06:36:22;;;;;;;18.65;2.80;;;;;;;-4.81;75.66;98888.03;4936669;29;20043;-59
2023/12/15 06:38:47;;;;;;;12.73;3.10;;;;;;;-4.77;75.18;98879.69;4953684;29;20486;-59
2023/12/15 06:41:14;;;;;;;12.02;2.60;;;;;;;-4.71;75.26;98892.41;4936087;29;20067;-60
2023/12/15 06:43:40;;;;;;;19.55;4.05;;;;;;;-4.78;75.30;98883.03;4920039;29;20134;-59
2023/12/15 06:46:06;;;;;;;10.60;2.42;;;;;;;-4.76;75.48;98880.50;4936403;29;20142;-59
2023/12/15 06:48:33;;;;;;;8.18;2.42;;;;;;;-4.64;76.00;98880.66;4919778;29;20490;-59
2023/12/15 06:50:58;;;;;;;8.18;2.83;;;;;;;-4.56;75.88;98881.63;4936308;29;20047;-59
2023/12/15 06:53:24;;;;;;;17.33;3.50;;;;;;;-4.76;75.43;98839.94;4936319;29;20082;-58
2023/12/15 06:55:50;;;;;;;10.25;2.20;;;;;;;-4.51;75.26;98869.00;4953438;29;20031;-59
2023/12/15 06:58:16;;;;;;;6.93;2.35;;;;;;;-4.47;75.39;98868.22;4953347;29;20114;-58
2023/12/15 07:00:42;;;;;;;15.57;2.78;;;;;;;-4.47;75.46;98866.53;4936141;29;20043;-57
2023/12/15 07:03:08;;;;;;;14.30;3.72;;;;;;;-4.46;75.28;98877.53;4953315;29;20526;-59
2023/12/15 07:05:35;;;;;;;13.52;3.55;;;;;;;-4.56;75.03;98868.09;4936159;29;20050;-60
2023/12/15 07:08:01;;;;;;;10.10;3.58;;;;;;;-4.45;74.86;98874.97;4953286;29;20077;-57
2023/12/15 07:10:27;;;;;;;21.30;4.13;;;;;;;-4.54;74.61;98874.03;4936329;29;20151;-57
2023/12/15 07:12:53;;;;;;;7.57;2.08;;;;;;;-4.55;75.14;98865.56;4936133;29;20134;-58
2023/12/15 07:15:19;;;;;;;11.55;2.88;;;;;;;-4.50;74.70;98869.00;4935864;29;20043;-59
2023/12/15 07:17:45;;;;;;;14.18;3.05;;;;;;;-4.79;75.20;98820.47;4935833;29;20039;-58
2023/12/15 07:20:11;;;;;;;9.88;2.33;;;;;;;-4.36;75.57;98864.13;4935701;29;20117;-59
2023/12/15 07:22:37;;;;;;;8.90;2.55;;;;;;;-4.26;75.22;98873.53;4935633;29;20085;-58
2023/12/15 07:25:03;;;;;;;13.35;2.17;;;;;;;-4.20;75.58;98873.59;4919920;29;20511;-57
2023/12/15 07:27:30;;;;;;;11.60;2.63;;;;;;;-4.16;75.55;98872.78;4952678;29;20079;-58
2023/12/15 07:29:56;;;;;;;10.70;2.75;;;;;;;-4.17;75.80;98867.69;4935790;29;20667;-57
2023/12/15 07:32:22;;;;;;;17.90;3.47;;;;;;;-4.22;75.29;98861.72;4935666;29;20039;-56
2023/12/15 07:34:48;;;;;;;16.75;3.00;;;;;;;-4.11;75.66;98877.91;4919762;29;20051;-59
2023/12/15 07:37:13;;;;;;;16.52;2.63;;;;;;;-4.02;75.85;98876.31;4952721;29;20703;-56
2023/12/15 07:39:39;;;;;;;15.02;3.28;;;;;;;-3.91;75.92;98874.75;4934634;29;20078;-54
2023/12/15 07:42:05;;;;;;;11.85;3.30;;;;;;;-4.09;75.27;98878.78;4935407;29;20067;-58
2023/12/15 07:44:31;;;;;;;11.57;2.70;;;;;;;-4.35;75.27;98843.84;4952522;29;20067;-58
2023/12/15 07:46:57;;;;;;;17.15;4.05;;;;;;;-4.32;75.76;98828.66;4935603;29;20529;-59
2023/12/15 07:49:24;;;;;;;13.57;3.42;;;;;;;-3.93;75.95;98865.44;4952418;29;20043;-58
2023/12/15 07:51:50;;;;;;;13.82;3.47;;;;;;;-3.82;76.10;98871.44;4935101;29;20134;-59
2023/12/15 07:54:16;;;;;;;17.13;4.30;;;;;;;-3.87;75.57;98868.84;4935326;29;20499;-59
2023/12/15 07:56:42;;;;;;;28.13;5.15;;;;;;;-3.93;75.84;98863.75;4935224;29;20066;-58
2023/12/15 07:59:08;;;;;;;14.25;3.55;;;;;;;-3.92;75.67;98874.72;4952372;29;20078;-58
2023/12/15 08:01:34;;;;;;;14.73;3.80;;;;;;;-4.37;75.23;98797.31;4918972;29;20146;-56
2023/12/15 08:04:00;;;;;;;12.85;4.50;;;;;;;-3.91;75.47;98872.22;4952417;29;20058;-58
2023/12/15 08:06:26;;;;;;;13.57;3.45;;;;;;;-3.92;75.09;98869.66;4952207;29;20050;-59
2023/12/15 08:08:52;;;;;;;11.07;2.35;;;;;;;-3.84;75.73;98855.34;4918720;29;20486;-60
2023/12/15 08:11:19;;;;;;;9.27;2.58;;;;;;;-3.77;75.63;98864.75;4952160;29;20074;-59
2023/12/15 08:13:45;;;;;;;19.20;2.58;;;;;;;-3.64;76.19;98853.00;4952110;29;20047;-57
2023/12/15 08:16:11;;;;;;;17.10;3.45;;;;;;;-3.57;75.79;98857.28;4952003;29;20878;-58
2023/12/15 08:18:38;;;;;;;13.55;2.83;;;;;;;-3.52;75.96;98853.09;4918983;29;20547;-58
2023/12/15 08:21:04;;;;;;;13.00;3.03;;;;;;;-3.42;76.12;98862.50;4919458;29;20602;-57
2023/12/15 08:23:30;;;;;;;12.75;2.80;;;;;;;-3.48;75.74;98835.34;4919355;29;20480;-61
2023/12/15 08:25:56;;;;;;;8.43;2.42;;;;;;;-3.59;75.41;98857.28;4934748;29;20077;-57
2023/12/15 08:28:22;;;;;;;11.77;2.80;;;;;;;-3.60;75.36;98855.56;4952678;29;20059;-58
2023/12/15 08:30:48;;;;;;;11.75;2.45;;;;;;;-3.45;75.60;98860.78;4919516;29;20047;-58
2023/12/15 08:33:15;;;;;;;11.82;2.55;;;;;;;-3.75;75.15;98819.03;4918743;29;20103;-60
2023/12/15 08:35:40;;;;;;;15.23;3.00;;;;;;;-3.44;75.33;98866.69;4902962;29;20081;-60
2023/12/15 08:38:07;;;;;;;14.65;3.90;;;;;;;-3.72;74.68;98858.03;4918170;29;20035;-59
2023/12/15 08:40:33;;;;;;;8.55;2.70;;;;;;;-3.88;75.23;98861.25;4950134;29;20074;-58
2023/12/15 08:42:58;;;;;;;17.02;2.38;;;;;;;-3.76;75.50;98860.50;4933278;29;20555;-62
2023/12/15 08:45:25;;;;;;;8.93;2.72;;;;;;;-3.88;75.40;98831.63;4918540;29;20070;-61
2023/12/15 08:47:50;;;;;;;16.70;2.70;;;;;;;-3.62;75.23;98861.47;4951587;29;20043;-60
2023/12/15 08:50:16;;;;;;;12.63;2.95;;;;;;;-3.70;75.75;98858.88;4951515;29;20046;-59
2023/12/15 08:52:43;;;;;;;14.35;2.70;;;;;;;-3.73;75.06;98860.53;4934142;29;20074;-57
2023/12/15 08:55:09;;;;;;;10.13;2.15;;;;;;;-3.70;75.47;98866.47;4934399;29;20043;-58
2023/12/15 08:57:35;;;;;;;17.27;2.97;;;;;;;-3.76;75.46;98833.41;4918221;29;20479;-58
2023/12/15 09:00:03;;;;;;;13.23;3.15;;;;;;;-3.66;75.12;98865.66;4934870;29;20047;-58
2023/12/15 09:02:33;;;;;;;9.35;3.40;;;;;;;-3.81;74.90;98859.59;4952187;29;20054;-58
2023/12/15 09:05:00;;;;;;;10.23;2.22;;;;;;;-3.72;75.43;98867.31;4951404;29;20138;-60
2023/12/15 09:07:28;;;;;;;8.90;2.40;;;;;;;-3.57;75.76;98862.38;4951034;29;20142;-58
2023/12/15 09:09:54;;;;;;;9.13;2.15;;;;;;;-3.42;75.86;98863.34;4933818;29;20543;-56
2023/12/15 09:12:20;;;;;;;17.00;2.70;;;;;;;-3.42;75.60;98860.81;4951182;29;20074;-57
2023/12/15 09:14:47;;;;;;;11.63;2.92;;;;;;;-3.38;75.34;98864.22;4933226;29;20114;-60
2023/12/15 09:17:13;;;;;;;12.45;2.25;;;;;;;-3.36;75.47;98864.25;4946990;29;20039;-58
2023/12/15 09:19:40;;;;;;;10.82;2.60;;;;;;;-3.43;75.73;98848.94;4933683;29;20153;-58
2023/12/15 09:22:06;;;;;;;9.85;2.33;;;;;;;-3.24;75.66;98866.84;4918040;29;20581;-58
2023/12/15 09:24:33;;;;;;;9.90;2.40;;;;;;;-3.27;75.33;98861.75;4951211;29;20043;-58
2023/12/15 09:26:59;;;;;;;14.07;2.17;;;;;;;-3.34;75.27;98858.31;4933807;29;20051;-58
2023/12/15 09:29:25;;;;;;;7.20;2.28;;;;;;;-3.15;75.66;98864.41;4933396;29;20043;-58
2023/12/15 09:31:51;;;;;;;11.20;2.05;;;;;;;-3.03;75.59;98861.91;4950785;29;20045;-59
2023/12/15 09:34:19;;;;;;;14.85;2.33;;;;;;;-3.01;75.84;98855.16;4933107;29;20035;-59
2023/12/15 09:36:45;;;;;;;14.00;3.85;;;;;;;-3.36;75.31;98806.66;4933045;29;20451;-55
2023/12/15 09:39:10;;;;;;;14.25;2.95;;;;;;;-3.17;75.59;98866.06;4950658;29;20098;-58
2023/12/15 09:41:36;;;;;;;7.80;2.08;;;;;;;-3.32;75.54;98826.16;4917717;29;20593;-57
2023/12/15 09:44:02;;;;;;;12.35;3.13;;;;;;;-3.09;75.31;98865.25;4933669;29;20049;-60
2023/12/15 09:46:29;;;;;;;11.02;3.13;;;;;;;-3.24;75.51;98871.94;4931748;29;20050;-58
2023/12/15 09:48:55;;;;;;;13.45;3.03;;;;;;;-3.27;75.53;98867.69;4901532;29;20039;-57
2023/12/15 09:51:23;;;;;;;19.85;2.78;;;;;;;-3.33;75.59;98875.25;4950469;29;20483;-60
2023/12/15 09:53:49;;;;;;;16.98;3.25;;;;;;;-3.43;75.86;98845.53;4933288;29;20063;-56
2023/12/15 09:56:15;;;;;;;13.68;3.28;;;;;;;-3.48;76.17;98837.03;4933104;29;20063;-60
2023/12/15 09:58:42;;;;;;;12.23;2.88;;;;;;;-3.11;76.07;98882.22;4917556;29;20511;-56
2023/12/15 10:01:09;;;;;;;12.75;2.50;;;;;;;-3.28;75.89;98839.72;4933391;29;20047;-58
2023/12/15 10:03:35;;;;;;;13.02;3.38;;;;;;;-3.32;75.61;98831.22;4933334;29;20042;-60
2023/12/15 10:06:01;;;;;;;17.38;4.07;;;;;;;-3.30;75.66;98880.38;4917346;29;20043;-59
2023/12/15 10:08:41;;;;;;;11.73;2.67;;;;;;;-3.32;76.12;98879.50;4950207;29;20121;-58
2023/12/15 10:11:07;;;;;;;13.63;2.80;;;;;;;-3.61;76.19;98840.34;4932771;29;20078;-60
2023/12/15 10:13:33;;;;;;;12.55;2.92;;;;;;;-3.27;76.29;98879.53;4950221;29;20090;-59
2023/12/15 10:15:59;;;;;;;13.20;2.83;;;;;;;-3.23;76.03;98879.56;4950009;29;20046;-56
2023/12/15 10:18:24;;;;;;;15.18;3.22;;;;;;;-3.32;76.18;98881.19;4933229;29;20044;-54
2023/12/15 10:20:50;;;;;;;11.18;3.03;;;;;;;-3.29;76.31;98878.66;4933224;29;20133;-58
2023/12/15 10:23:28;;;;;;;12.70;2.85;;;;;;;-3.13;76.51;98875.41;4932877;29;20053;-60
2023/12/15 10:25:55;;;;;;;12.25;3.25;;;;;;;-2.95;76.49;98874.69;4916663;29;20222;-58
2023/12/15 10:28:21;;;;;;;14.10;2.90;;;;;;;-3.03;76.10;98877.16;4949890;29;20125;-57
2023/12/15 10:30:50;;;;;;;17.73;3.53;;;;;;;-3.26;76.02;98835.50;4950075;29;20110;-59
2023/12/15 10:33:17;;;;;;;17.83;3.63;;;;;;;-3.02;76.03;98864.47;4950067;29;20039;-58
2023/12/15 10:35:50;;;;;;;10.43;3.20;;;;;;;-2.91;76.39;98873.84;4932897;29;20058;-58
2023/12/15 10:38:16;;;;;;;9.18;3.25;;;;;;;-2.84;75.80;98873.06;4917064;29;20035;-57
2023/12/15 10:40:44;;;;;;;10.48;3.03;;;;;;;-2.83;76.13;98874.78;4950066;29;20043;-57
2023/12/15 10:43:11;;;;;;;11.98;2.42;;;;;;;-3.12;75.91;98836.44;4932926;29;20054;-60
2023/12/15 10:45:37;;;;;;;9.93;3.10;;;;;;;-2.90;75.90;98880.66;4932927;29;20142;-58
2023/12/15 10:48:03;;;;;;;8.43;3.45;;;;;;;-2.75;76.19;98879.06;4932008;29;20142;-58
2023/12/15 10:50:30;;;;;;;12.38;2.92;;;;;;;-2.75;76.21;98875.66;4950171;29;20070;-56
2023/12/15 10:52:57;;;;;;;15.05;3.00;;;;;;;-2.84;76.08;98863.75;4950018;29;20039;-58
2023/12/15 10:55:25;;;;;;;12.55;3.60;;;;;;;-2.90;75.65;98858.63;4932901;29;20043;-58
2023/12/15 10:57:58;;;;;;;15.65;3.55;;;;;;;-2.81;76.02;98880.69;4935344;29;20040;-56
2023/12/15 11:00:24;;;;;;;15.88;4.32;;;;;;;-2.71;76.42;98885.84;4921385;29;20480;-58
2023/12/15 11:02:51;;;;;;;11.95;3.20;;;;;;;-2.92;76.28;98895.03;4953521;29;20071;-58
2023/12/15 11:05:17;;;;;;;9.05;3.10;;;;;;;-2.91;76.60;98892.50;4936210;29;20474;-59
2023/12/15 11:07:43;;;;;;;11.35;3.20;;;;;;;-3.11;76.11;98848.31;4920133;29;20047;-58
2023/12/15 11:10:12;;;;;;;15.13;4.07;;;;;;;-2.78;76.55;98889.22;4936301;29;20051;-59
2023/12/15 11:12:40;;;;;;;14.48;4.32;;;;;;;-2.62;76.38;98892.69;4953311;29;20058;-58
2023/12/15 11:15:07;;;;;;;13.10;3.17;;;;;;;-2.53;76.08;98900.38;4904414;29;20055;-58
2023/12/15 11:17:38;;;;;;;16.05;3.40;;;;;;;-2.64;76.27;98867.25;4952871;29;20050;-59
2023/12/15 11:20:09;;;;;;;20.02;3.90;;;;;;;-2.32;76.19;98897.06;4953180;29;20076;-58
2023/12/15 11:22:51;;;;;;;14.73;4.07;;;;;;;-2.30;76.21;98900.47;4936232;29;20054;-58
2023/12/15 11:25:19;;;;;;;13.18;3.40;;;;;;;-2.25;75.99;98899.63;4935990;29;20126;-59